Latest Weather Observations for Mildura

IDN60801

Issued at 9:33 pm EDT Monday 22 December 2014 (issued every 30 minutes, with the page automatically refreshed every 10 minutes)

About weather observations | Map of weather stations | Latest weather observations for NSW | Other Formats
Station Details ID: 076031 Name: MILDURA AIRPORT Lat: -34.24 Lon: 142.09 Height: 50.0 m
Data from the previous 72 hours. | See also: Recent months at Mildura
Date/Time
EDT
Temp
°C
App
Temp
°C
Dew
Point
Rel
Hum
%
Delta-T
°C
Wind Press
QNH
hPa
Press
MSL
hPa
Rain
since 9 am
mm
Dir
 
Spd
km/h
Gust
km/h
Spd
kts
Gust
kts
22/09:30pm 23.9 23.6 13.4 51 6.1 NE 7 9 4 5 1008.1 1007.9 0.0
22/09:00pm 24.5 25.3 13.7 51 6.4 ESE 2 7 1 4 1007.8 1007.6 0.0
22/08:30pm 25.5 26.6 13.4 47 7.1 CALM 0 6 0 3 1007.4 1007.2 0.0
22/08:00pm 25.7 25.4 13.2 46 7.3 SSW 7 11 4 6 1007.8 1007.6 0.0
22/07:30pm 26.4 24.2 12.1 41 8.2 WNW 15 22 8 12 1009.0 1008.8 0.0
22/07:00pm 28.0 24.4 10.7 34 9.8 W 20 30 11 16 1008.5 1008.3 0.0
22/06:30pm 29.0 25.2 9.7 30 10.8 W 20 32 11 17 1007.6 1007.4 0.0
22/06:00pm 29.6 23.7 9.2 28 11.4 W 30 44 16 24 1007.5 1007.3 0.0
22/05:46pm 30.3 24.7 8.7 26 12.0 W 28 54 15 29 1007.3 1007.1 0.0
22/05:30pm 30.9 26.5 7.4 23 12.8 W 20 32 11 17 1007.3 1007.1 0.0
22/05:00pm 31.3 26.8 7.1 22 13.2 WSW 20 33 11 18 1007.3 1007.1 0.0
22/04:42pm 31.6 27.2 7.3 22 13.3 WSW 20 33 11 18 1007.3 1007.1 0.0
22/04:30pm 31.4 24.8 8.4 24 12.8 W 33 54 18 29 1007.7 1007.5 0.0
22/04:21pm 31.9 23.7 8.2 23 13.2 WNW 41 63 22 34 1007.6 1007.4 0.0
22/04:12pm 32.9 26.2 5.5 18 14.6 WNW 30 57 16 31 1007.4 1007.2 0.0
22/04:00pm 33.5 27.9 3.3 15 15.7 WNW 22 37 12 20 1007.2 1007.0 0.0
22/03:30pm 33.9 26.8 3.6 15 15.8 WNW 30 54 16 29 1006.7 1006.5 0.0
22/03:28pm 34.0 27.1 2.8 14 16.1 NW 28 54 15 29 1006.8 1006.6 0.0
22/03:00pm 35.1 27.8 0.2 11 17.4 WNW 28 44 15 24 1006.2 1006.0 0.0
22/02:30pm 35.8 29.9 -0.5 10 17.9 N 20 37 11 20 1005.8 1005.6 0.0
22/02:08pm 35.7 28.7 -0.6 10 17.9 WNW 26 54 14 29 1006.2 1006.0 0.0
22/02:06pm 36.0 29.2 -1.8 9 18.3 NW 24 54 13 29 1005.8 1005.6 0.0
22/02:00pm 36.7 31.3 -1.3 9 18.7 NW 17 22 9 12 1005.8 1005.6 0.0
22/01:30pm 37.7 32.2 -2.2 8 19.4 N 17 24 9 13 1006.0 1005.8 0.0
22/01:00pm 37.9 31.7 -0.4 9 19.2 N 22 33 12 18 1006.3 1006.1 0.0
22/12:30pm 37.3 32.2 0.6 10 18.6 N 17 28 9 15 1006.7 1006.5 0.0
22/12:00pm 36.0 30.2 -0.4 10 18.1 N 20 32 11 17 1006.8 1006.6 0.0
22/11:30am 36.4 29.5 -0.1 10 18.2 NNE 26 35 14 19 1006.9 1006.7 0.0
22/11:00am 36.0 29.8 2.1 12 17.5 NE 24 35 13 19 1007.1 1006.9 0.0
22/10:30am 35.9 29.7 2.1 12 17.4 NE 24 32 13 17 1007.2 1007.0 0.0
22/10:00am 35.4 29.1 1.7 12 17.2 NE 24 33 13 18 1007.5 1007.3 0.0
22/09:30am 33.2 28.1 4.0 16 15.2 NE 20 28 11 15 1007.7 1007.5 0.0
22/09:00am 30.2 25.7 4.0 19 13.5 NE 17 22 9 12 1008.0 1007.8 0.0
22/08:30am 28.4 24.6 4.0 21 12.4 NE 13 15 7 8 1008.0 1007.8 0.0
22/08:00am 27.6 23.4 4.0 22 11.9 NE 15 19 8 10 1008.0 1007.8 0.0
22/07:30am 26.9 23.0 3.4 22 11.7 NE 13 15 7 8 1007.8 1007.6 0.0
22/07:00am 26.7 22.4 3.2 22 11.7 NE 15 17 8 9 1007.5 1007.3 0.0
22/06:30am 26.8 22.5 3.3 22 11.7 NE 15 17 8 9 1007.4 1007.2 0.0
22/05:30am 27.5 22.7 2.6 20 12.3 NE 17 24 9 13 1007.0 1006.8 0.0
22/05:00am 25.7 22.6 3.6 24 11.0 ENE 9 13 5 7 1006.9 1006.7 0.0
22/04:30am 25.2 21.5 4.3 26 10.4 ENE 13 17 7 9 1006.9 1006.7 0.0
22/04:00am 24.6 21.0 4.9 28 9.9 ENE 13 15 7 8 1007.0 1006.8 0.0
22/03:30am 25.2 22.3 4.9 27 10.3 E 9 13 5 7 1007.2 1007.0 0.0
22/03:00am 25.9 22.3 4.9 26 10.7 E 13 15 7 8 1007.4 1007.2 0.0
22/02:30am 27.2 24.0 4.9 24 11.4 E 11 15 6 8 1007.8 1007.6 0.0
22/02:00am 26.8 23.6 5.1 25 11.1 E 11 13 6 7 1008.0 1007.8 0.0
22/01:30am 25.9 23.0 6.5 29 10.1 ENE 11 13 6 7 1008.5 1008.3 0.0
22/01:00am 25.5 22.7 8.5 34 9.2 E 13 15 7 8 1008.7 1008.5 0.0
22/12:30am 26.2 24.3 9.1 34 9.4 ENE 9 13 5 7 1009.1 1008.9 0.0
22/12:00am 26.5 24.8 9.8 35 9.3 E 9 11 5 6 1009.2 1009.0 0.0
 
Date/Time
EDT
Temp
°C
App
Temp
°C
Dew
Point
Rel
Hum
%
Delta-T
°C
Wind Press
QNH
hPa
Press
MSL
hPa
Rain
since 9 am
mm
Dir
 
Spd
km/h
Gust
km/h
Spd
kts
Gust
kts
21/11:30pm 26.5 25.1 9.4 34 9.4 E 7 7 4 4 1009.4 1009.2 0.0
21/11:00pm 27.6 26.8 6.4 26 11.2 CALM 0 0 0 0 1009.7 1009.5 0.0
21/10:30pm 27.9 26.7 6.6 26 11.3 N 2 6 1 3 1009.8 1009.6 0.0
21/10:00pm 28.5 27.0 6.6 25 11.6 NNE 4 6 2 3 1009.7 1009.5 0.0
21/09:30pm 29.3 27.4 6.7 24 12.1 E 6 7 3 4 1009.4 1009.2 0.0
21/09:00pm 30.8 28.4 5.3 20 13.4 E 7 9 4 5 1009.4 1009.2 0.0
21/08:30pm 32.1 29.6 4.0 17 14.6 E 6 7 3 4 1009.2 1009.0 0.0
21/08:00pm 33.7 30.4 2.5 14 16.0 ENE 9 11 5 6 1009.1 1008.9 0.0
21/07:30pm 35.1 31.3 -1.1 10 17.6 NE 9 13 5 7 1009.1 1008.9 0.0
21/07:00pm 35.7 30.8 -0.6 10 17.9 N 15 20 8 11 1009.0 1008.8 0.0
21/06:30pm 35.9 33.1 -0.5 10 18.0 WNW 4 7 2 4 1008.9 1008.7 0.0
21/06:00pm 35.1 31.6 -1.1 10 17.6 NNW 7 15 4 8 1009.0 1008.8 0.0
21/05:30pm 35.5 31.3 -0.8 10 17.8 NW 11 22 6 12 1009.1 1008.9 0.0
21/05:00pm 35.6 30.9 0.6 11 17.6 NNW 15 24 8 13 1009.3 1009.1 0.0
21/04:30pm 36.5 32.4 0.0 10 18.2 NW 11 24 6 13 1009.6 1009.4 0.0
21/04:00pm 35.4 31.4 0.5 11 17.5 NNE 11 19 6 10 1010.0 1009.8 0.0
21/03:30pm 35.4 31.4 0.5 11 17.5 NE 11 20 6 11 1010.4 1010.2 0.0
21/03:00pm 36.1 31.8 1.0 11 17.8 N 13 22 7 12 1010.7 1010.5 0.0
21/02:30pm 35.8 32.0 2.0 12 17.4 N 11 19 6 10 1011.2 1011.0 0.0
21/02:00pm 34.9 31.0 1.3 12 17.0 NE 11 17 6 9 1011.6 1011.4 0.0
21/01:30pm 34.9 32.2 2.4 13 16.7 W 6 11 3 6 1012.1 1011.9 0.0
21/01:00pm 34.1 30.1 2.8 14 16.1 W 13 22 7 12 1012.5 1012.3 0.0
21/12:30pm 33.4 28.7 3.3 15 15.6 NW 17 24 9 13 1012.8 1012.6 0.0
21/12:00pm 32.8 28.8 2.8 15 15.3 NNE 13 28 7 15 1013.1 1012.9 0.0
21/11:30am 32.9 28.8 4.6 17 14.9 NNW 15 28 8 15 1013.5 1013.3 0.0
21/11:00am 31.8 27.2 3.8 17 14.5 NNW 17 30 9 16 1013.5 1013.3 0.0
21/10:30am 31.6 27.1 4.4 18 14.2 N 17 28 9 15 1013.5 1013.3 0.0
21/10:00am 30.6 25.9 5.1 20 13.4 NNE 19 28 10 15 1013.7 1013.5 0.0
21/09:30am 29.5 24.8 6.2 23 12.4 NNE 20 28 11 15 1013.8 1013.6 0.0
21/09:00am 28.3 24.4 7.0 26 11.4 NE 17 20 9 11 1013.9 1013.7 0.0
21/08:30am 26.1 22.0 6.2 28 10.3 NNE 17 20 9 11 1013.7 1013.5 0.0
21/08:00am 24.9 21.6 6.6 31 9.5 NE 13 17 7 9 1013.6 1013.4 0.0
21/07:30am 22.8 20.4 7.0 36 8.2 NE 9 13 5 7 1013.4 1013.2 0.0
21/07:00am 19.8 17.4 7.2 44 6.4 NE 9 11 5 6 1013.0 1012.8 0.0
21/06:30am 18.0 15.7 7.4 50 5.4 NE 9 9 5 5 1012.9 1012.7 0.0
21/06:00am 16.6 14.1 6.4 51 5.0 ENE 9 9 5 5 1012.9 1012.7 0.0
21/05:30am 17.3 15.6 7.4 52 5.0 NE 6 6 3 3 1013.4 1013.2 0.0
21/05:00am 18.0 16.2 7.1 49 5.5 ENE 6 7 3 4 1012.8 1012.6 0.0
21/04:30am 18.8 16.8 7.3 47 5.8 NE 7 9 4 5 1012.3 1012.1 0.0
21/04:00am 19.0 17.2 7.8 48 5.7 NE 7 9 4 5 1012.3 1012.1 0.0
21/03:30am 18.9 17.3 8.6 51 5.4 NE 7 7 4 4 1012.4 1012.2 0.0
21/03:00am 19.7 17.8 7.4 45 6.3 NE 7 9 4 5 1012.5 1012.3 0.0
21/02:30am 20.1 18.3 8.1 46 6.2 NE 7 9 4 5 1012.6 1012.4 0.0
21/02:00am 20.4 18.5 7.4 43 6.7 ENE 7 9 4 5 1012.9 1012.7 0.0
21/01:30am 21.2 19.6 8.1 43 6.8 NE 6 7 3 4 1013.2 1013.0 0.0
21/01:00am 21.9 19.8 8.1 41 7.2 E 9 13 5 7 1013.4 1013.2 0.0
21/12:30am 22.3 20.1 7.7 39 7.6 E 9 11 5 6 1013.5 1013.3 0.0
21/12:00am 22.7 20.6 8.4 40 7.6 E 9 11 5 6 1013.7 1013.5 0.0
 
Date/Time
EDT
Temp
°C
App
Temp
°C
Dew
Point
Rel
Hum
%
Delta-T
°C
Wind Press
QNH
hPa
Press
MSL
hPa
Rain
since 9 am
mm
Dir
 
Spd
km/h
Gust
km/h
Spd
kts
Gust
kts
20/11:30pm 22.8 21.0 7.8 38 7.9 E 7 7 4 4 1014.0 1013.8 0.0
20/11:00pm 23.0 21.1 7.5 37 8.1 E 7 9 4 5 1014.1 1013.9 0.0
20/10:30pm 23.1 22.4 6.8 35 8.4 CALM 0 0 0 0 1014.0 1013.8 0.0
20/10:00pm 24.2 23.6 7.4 34 8.8 CALM 0 0 0 0 1013.8 1013.6 0.0
20/09:30pm 25.2 23.4 7.3 32 9.4 E 6 6 3 3 1013.8 1013.6 0.0
20/09:00pm 26.8 25.0 7.3 29 10.4 ESE 6 7 3 4 1013.6 1013.4 0.0
20/08:30pm 28.8 26.6 6.2 24 11.9 ESE 7 9 4 5 1013.3 1013.1 0.0
20/08:00pm 30.1 26.6 5.4 21 13.0 ESE 13 17 7 9 1013.2 1013.0 0.0
20/07:30pm 30.5 26.5 5.0 20 13.3 ESE 15 19 8 10 1013.1 1012.9 0.0
20/07:00pm 31.2 27.6 4.9 19 13.8 E 13 19 7 10 1013.0 1012.8 0.0
20/06:30pm 31.1 27.8 4.8 19 13.8 E 11 17 6 9 1012.9 1012.7 0.0
20/06:00pm 30.7 27.0 4.4 19 13.6 ESE 13 19 7 10 1013.0 1012.8 0.0
20/05:30pm 30.9 28.0 4.6 19 13.7 SSE 9 15 5 8 1013.3 1013.1 0.0
20/05:00pm 31.2 28.0 4.9 19 13.8 ESE 11 20 6 11 1013.6 1013.4 0.0
20/04:30pm 31.3 27.3 4.9 19 13.8 E 15 22 8 12 1014.0 1013.8 0.0
20/04:00pm 30.3 27.3 4.1 19 13.5 ENE 9 22 5 12 1014.3 1014.1 0.0
20/03:30pm 30.1 26.4 4.7 20 13.2 E 13 22 7 12 1015.0 1014.8 0.0
20/03:00pm 29.3 25.4 3.3 19 13.1 NW 13 22 7 12 1015.4 1015.2 0.0
20/02:30pm 28.8 25.7 3.6 20 12.7 SSW 9 19 5 10 1016.0 1015.8 0.0
20/02:00pm 28.4 25.8 4.0 21 12.4 NNE 7 17 4 9 1016.4 1016.2 0.0
20/01:30pm 27.5 24.7 3.2 21 12.1 SE 7 13 4 7 1016.7 1016.6 0.0
20/01:00pm 28.3 25.6 3.9 21 12.3 SSE 7 11 4 6 1017.3 1017.1 0.0
20/12:30pm 27.2 24.5 3.7 22 11.8 SW 7 13 4 7 1017.8 1017.6 0.0
20/12:00pm 26.1 22.7 4.0 24 11.0 ENE 11 17 6 9 1018.1 1017.9 0.0
20/11:30am 25.6 23.4 3.5 24 10.9 NNW 4 11 2 6 1018.5 1018.3 0.0
20/11:00am 24.4 21.3 3.7 26 10.2 ENE 9 17 5 9 1018.7 1018.5 0.0
20/10:30am 24.1 20.9 5.0 29 9.6 NE 11 17 6 9 1018.9 1018.7 0.0
20/10:00am 22.4 18.6 4.0 30 8.9 ENE 13 20 7 11 1019.2 1019.0 0.0
20/09:30am 21.6 17.5 4.2 32 8.5 ENE 15 20 8 11 1019.3 1019.1 0.0
20/09:00am 20.3 15.8 4.4 35 7.7 E 17 24 9 13 1019.2 1019.0 0.0
20/08:30am 19.4 15.4 4.7 38 7.1 ESE 15 20 8 11 1019.0 1018.8 0.0
20/08:00am 17.2 13.6 5.2 45 5.8 SE 13 19 7 10 1018.8 1018.6 0.0
20/07:30am 15.7 12.8 4.7 48 5.2 SE 9 15 5 8 1018.6 1018.4 0.0
20/07:00am 14.3 11.5 5.1 54 4.3 SSE 9 13 5 7 1018.1 1017.9 0.0
20/06:30am 13.8 11.4 5.2 56 4.0 S 7 13 4 7 1017.8 1017.6 0.0
20/06:00am 14.1 11.3 5.2 55 4.2 S 9 13 5 7 1017.6 1017.4 0.0
20/05:30am 14.5 11.2 4.8 52 4.5 S 11 17 6 9 1017.3 1017.1 0.0
20/05:00am 15.1 11.5 5.0 51 4.8 S 13 17 7 9 1017.1 1016.9 0.0
20/04:30am 15.6 12.0 5.2 50 4.9 S 13 19 7 10 1017.0 1016.8 0.0
20/04:00am 16.2 12.6 5.2 48 5.2 S 13 19 7 10 1017.0 1016.8 0.0
20/03:30am 16.7 13.1 5.0 46 5.6 S 13 20 7 11 1017.2 1017.0 0.0
20/03:00am 17.1 13.5 4.8 44 5.9 SSW 13 20 7 11 1017.4 1017.2 0.0
20/02:30am 17.4 13.7 4.4 42 6.2 SSW 13 20 7 11 1017.7 1017.5 0.0
20/02:00am 18.1 14.3 3.9 39 6.7 SSW 13 20 7 11 1018.0 1017.8 0.0
20/01:30am 18.6 14.7 3.3 36 7.2 SSW 13 17 7 9 1018.0 1017.8 0.0
20/01:00am 19.4 15.1 3.2 34 7.6 SSW 15 22 8 12 1018.1 1017.9 0.0
20/12:30am 19.6 15.7 3.3 34 7.7 SSW 13 20 7 11 1018.2 1018.0 0.0
20/12:00am 19.4 15.4 2.7 33 7.7 SSW 13 17 7 9 1018.2 1018.0 0.0
 
Date/Time
EDT
Temp
°C
App
Temp
°C
Dew
Point
Rel
Hum
%
Delta-T
°C
Wind Press
QNH
hPa
Press
MSL
hPa
Rain
since 9 am
mm
Dir
 
Spd
km/h
Gust
km/h
Spd
kts
Gust
kts
19/11:30pm 19.9 16.6 2.3 31 8.1 SSW 9 13 5 7 1018.2 1018.0 0.0
19/11:00pm 20.3 17.0 2.6 31 8.3 SSW 9 9 5 5 1018.2 1018.0 0.0
19/10:30pm 20.9 18.0 2.7 30 8.6 SSW 7 9 4 5 1018.0 1017.8 0.0
19/10:00pm 21.6 18.7 2.8 29 8.9 SSW 7 11 4 6 1017.7 1017.5 0.0

Other Formats:

Comma delimited format used in spreadsheet applications
http://www.bom.gov.au/fwo/IDN60801/IDN60801.94693.axf

JavaScript Object Notation format (JSON) in row-major order
http://www.bom.gov.au/fwo/IDN60801/IDN60801.94693.json